Terminal Aerodrome Forecast
Issued by NWS

Home | Current Version | Previous Version | Text Only | Print | Product List | Glossary On
Versions: 1 2 3 4 5 6 7 8 9 10 11 12 13 14 15 16 17 18
000
FTUS43 KILX 030520
TAFBMI
TAF
KBMI 030520Z 0306/0406 04009KT P6SM SCT030 BKN250
     FM030900 04007KT P6SM SCT015 OVC030
     FM031500 05009KT P6SM SCT025 BKN035
     FM032100 04009KT P6SM SCT040
     FM040200 04005KT P6SM SKC=

USA.gov is the U.S. government's official web portal to all federal, state and local government web resources and services.